Terminal Aerodrome Forecast
Issued by NWS Portland, ME

Home | Current Version | Previous Version | Text Only | Print | Product List | Glossary On
Versions: 1 2 3 4 5 6 7 8 9 10 11 12 13 14 15 16 17 18 19 20 21 22 23 24 25 26 27 28 29
273
FTUS41 KGYX 231737
TAFPWM
TAF
KPWM 231737Z 2318/2418 05012KT P6SM OVC022
     FM232300 04015G25KT P6SM -SHSN OVC020
      TEMPO 2400/2404 3SM -SN BR OVC015
     FM240400 03018G28KT 2SM -SN BR OVC012
     FM241000 03022G32KT 2SM -SNPL BR OVC007=

USA.gov is the U.S. government's official web portal to all federal, state and local government web resources and services.